Time;durP1;ratioP1;P1;durP2;ratioP2;P2;SDS_P1;SDS_P2;PMS_P1;PMS_P2;Temp;Humidity;BMP_temperature;BMP_pressure;BME280_temperature;BME280_humidity;BME280_pressure;Samples;Min_cycle;Max_cycle;Signal;HPM_P1;HPM_P2
2023/04/24 00:00:17;;;;;;;8.03;6.83;;;;;;;13.39;70.81;99350.53;5074966;28;20196;-69
2023/04/24 00:02:46;;;;;;;10.80;7.10;;;;;;;13.31;71.27;99342.81;5074467;28;20715;-69
2023/04/24 00:05:14;;;;;;;8.30;7.60;;;;;;;13.21;71.88;99357.66;5065042;28;20283;-70
2023/04/24 00:07:43;;;;;;;8.00;7.20;;;;;;;13.05;72.13;99345.66;5074437;28;20282;-70
2023/04/24 00:10:10;;;;;;;12.90;7.70;;;;;;;13.05;72.95;99352.84;5074480;28;20604;-70
2023/04/24 00:12:37;;;;;;;43.70;14.27;;;;;;;12.99;72.97;99349.19;5074090;28;20614;-71
2023/04/24 00:15:05;;;;;;;29.30;12.60;;;;;;;12.94;73.18;99351.66;5074371;28;20249;-70
2023/04/24 00:17:32;;;;;;;14.63;8.90;;;;;;;12.91;73.49;99348.59;5074243;28;20683;-70
2023/04/24 00:19:59;;;;;;;17.67;10.90;;;;;;;12.93;73.46;99354.53;5074539;28;20244;-69
2023/04/24 00:22:26;;;;;;;13.20;8.47;;;;;;;12.99;73.78;99356.38;5074095;28;20249;-69
2023/04/24 00:24:54;;;;;;;10.80;7.13;;;;;;;13.00;73.58;99350.00;5074217;28;20656;-69
2023/04/24 00:27:21;;;;;;;9.60;6.90;;;;;;;13.01;73.45;99340.97;5073831;28;20237;-69
2023/04/24 00:29:48;;;;;;;8.37;7.40;;;;;;;13.02;73.07;99342.63;5073654;28;20313;-70
2023/04/24 00:32:15;;;;;;;11.97;8.27;;;;;;;13.01;73.47;99346.31;5074165;28;20620;-70
2023/04/24 00:34:42;;;;;;;9.93;7.00;;;;;;;12.97;74.21;99340.59;5074372;28;20203;-70
2023/04/24 00:37:09;;;;;;;9.90;6.93;;;;;;;12.93;74.44;99347.34;5074291;28;20188;-70
2023/04/24 00:39:35;;;;;;;8.33;6.57;;;;;;;12.95;74.09;99337.28;5074102;28;20253;-70
2023/04/24 00:42:06;;;;;;;8.00;7.07;;;;;;;12.93;73.66;99334.03;5073790;28;20192;-70
2023/04/24 00:44:33;;;;;;;15.67;6.70;;;;;;;12.92;74.10;99332.41;5073781;28;20639;-70
2023/04/24 00:47:00;;;;;;;7.43;6.77;;;;;;;12.82;74.26;99340.03;5074128;28;20199;-70
2023/04/24 00:49:27;;;;;;;8.80;6.87;;;;;;;12.74;74.28;99340.28;5073613;28;20195;-69
2023/04/24 00:51:53;;;;;;;9.80;7.93;;;;;;;12.60;74.86;99340.56;5073243;28;20195;-69
2023/04/24 00:54:20;;;;;;;10.10;9.20;;;;;;;12.37;75.49;99340.28;5073827;28;20199;-70
2023/04/24 00:56:47;;;;;;;10.23;9.23;;;;;;;12.22;75.95;99345.84;5073567;28;20192;-70
2023/04/24 00:59:17;;;;;;;13.93;10.17;;;;;;;11.91;77.21;99344.91;5072779;28;20244;-71
2023/04/24 01:01:45;;;;;;;11.70;10.63;;;;;;;11.79;77.53;99343.88;5073790;28;20201;-71
2023/04/24 01:04:13;;;;;;;15.30;10.47;;;;;;;11.61;77.92;99341.06;5073454;28;20265;-71
2023/04/24 01:06:40;;;;;;;15.00;11.53;;;;;;;11.41;78.54;99346.38;5073724;28;20264;-71
2023/04/24 01:09:08;;;;;;;14.37;10.63;;;;;;;11.32;79.51;99346.75;5073189;28;20727;-69
2023/04/24 01:11:35;;;;;;;17.43;11.33;;;;;;;11.28;80.24;99346.38;5073773;28;20576;-70
2023/04/24 01:14:02;;;;;;;12.80;10.40;;;;;;;11.22;80.79;99347.16;5072772;28;20198;-70
2023/04/24 01:16:30;;;;;;;11.50;10.30;;;;;;;11.21;81.01;99344.69;5073529;28;20248;-70
2023/04/24 01:18:57;;;;;;;12.90;10.20;;;;;;;11.25;80.79;99341.44;5072811;28;20251;-72
2023/04/24 01:21:27;;;;;;;10.63;9.33;;;;;;;11.14;81.54;99342.03;5072354;28;20255;-70
2023/04/24 01:23:56;;;;;;;10.23;9.30;;;;;;;11.11;81.87;99342.44;5073320;28;20233;-69
2023/04/24 01:26:25;;;;;;;9.87;9.07;;;;;;;11.08;81.86;99340.22;5073402;28;20281;-70
2023/04/24 01:28:52;;;;;;;10.30;9.40;;;;;;;11.00;81.91;99345.72;5072685;28;20727;-71
2023/04/24 01:31:19;;;;;;;10.57;9.47;;;;;;;10.92;82.15;99341.41;5073185;28;20623;-72
2023/04/24 01:33:46;;;;;;;15.00;10.03;;;;;;;10.84;82.56;99348.75;5072981;28;20203;-71
2023/04/24 01:36:12;;;;;;;10.37;9.43;;;;;;;10.70;83.59;99337.25;5072837;28;20651;-71
2023/04/24 01:38:39;;;;;;;11.10;10.00;;;;;;;10.68;83.67;99357.91;5072781;28;20196;-71
2023/04/24 01:41:07;;;;;;;11.73;10.53;;;;;;;10.72;83.52;99360.97;5073039;28;20197;-71
2023/04/24 01:43:34;;;;;;;12.20;9.20;;;;;;;10.63;83.71;99359.53;5072821;28;20691;-71
2023/04/24 01:46:01;;;;;;;10.70;9.33;;;;;;;10.44;84.67;99341.69;5072819;28;20189;-71
2023/04/24 01:48:29;;;;;;;11.23;10.30;;;;;;;10.43;84.60;99351.50;5072816;28;20262;-71
2023/04/24 01:50:57;;;;;;;12.17;10.93;;;;;;;10.44;84.65;99346.97;5071620;28;20733;-71
2023/04/24 01:53:24;;;;;;;12.10;10.10;;;;;;;10.41;85.06;99342.91;5072477;28;20204;-71
2023/04/24 01:55:50;;;;;;;11.97;10.77;;;;;;;10.35;85.35;99343.69;5072572;28;20635;-71
2023/04/24 01:58:18;;;;;;;11.40;9.77;;;;;;;10.32;86.28;99351.22;5072579;28;20257;-70
2023/04/24 02:00:45;;;;;;;11.50;10.50;;;;;;;10.31;85.57;99346.94;5072175;28;20188;-70
2023/04/24 02:03:12;;;;;;;10.80;9.87;;;;;;;10.34;86.67;99341.25;5072437;28;20215;-70
2023/04/24 02:05:38;;;;;;;11.20;10.20;;;;;;;10.41;85.75;99342.06;5072518;28;20196;-70
2023/04/24 02:08:05;;;;;;;12.03;10.63;;;;;;;10.47;85.91;99335.97;5072165;28;20672;-70
2023/04/24 02:10:32;;;;;;;12.60;10.47;;;;;;;10.49;85.61;99339.25;5072191;28;20196;-71
2023/04/24 02:12:59;;;;;;;10.50;9.60;;;;;;;10.57;85.31;99347.03;5071971;28;20614;-71
2023/04/24 02:15:27;;;;;;;13.03;9.77;;;;;;;10.62;85.17;99336.66;5072399;28;20199;-71
2023/04/24 02:17:54;;;;;;;10.57;9.40;;;;;;;10.70;84.74;99329.31;5072053;28;20267;-71
2023/04/24 02:20:20;;;;;;;10.10;9.20;;;;;;;10.72;84.53;99337.91;5069958;28;20249;-70
2023/04/24 02:22:47;;;;;;;9.50;8.63;;;;;;;10.68;84.50;99331.34;5072025;28;20597;-70
2023/04/24 02:25:14;;;;;;;10.20;9.10;;;;;;;10.76;84.54;99335.66;5072191;28;20196;-69
2023/04/24 02:27:40;;;;;;;13.60;9.20;;;;;;;10.79;84.03;99319.31;5071381;28;20229;-69
2023/04/24 02:30:08;;;;;;;12.50;9.53;;;;;;;10.80;83.93;99324.44;5072307;28;20261;-69
2023/04/24 02:32:38;;;;;;;11.87;9.57;;;;;;;10.85;83.33;99324.66;5072205;28;20197;-69
2023/04/24 02:35:06;;;;;;;14.27;9.27;;;;;;;10.84;83.54;99316.88;5071810;28;20231;-69
2023/04/24 02:37:33;;;;;;;17.10;9.77;;;;;;;10.88;83.40;99318.09;5072146;28;20189;-70
2023/04/24 02:39:59;;;;;;;10.60;9.60;;;;;;;10.86;83.65;99312.97;5072185;28;20193;-70
2023/04/24 02:42:26;;;;;;;18.40;9.80;;;;;;;10.87;83.78;99316.47;5071769;28;20663;-70
2023/04/24 02:44:53;;;;;;;14.13;9.77;;;;;;;10.79;84.65;99314.00;5071694;28;20214;-70
2023/04/24 02:47:19;;;;;;;9.73;8.83;;;;;;;10.68;84.40;99323.38;5071789;28;20259;-70
2023/04/24 02:49:47;;;;;;;14.67;10.33;;;;;;;10.63;85.10;99325.00;5069542;28;20189;-71
2023/04/24 02:52:14;;;;;;;22.80;10.23;;;;;;;10.66;84.90;99313.97;5072064;28;20257;-71
2023/04/24 02:54:41;;;;;;;13.60;9.80;;;;;;;10.64;85.55;99316.00;5071954;28;20200;-71
2023/04/24 02:57:07;;;;;;;11.40;9.07;;;;;;;10.58;85.59;99312.31;5071628;28;20255;-69
2023/04/24 02:59:34;;;;;;;18.20;8.63;;;;;;;10.58;85.58;99324.78;5071889;28;20272;-69
2023/04/24 03:02:01;;;;;;;14.80;9.17;;;;;;;10.61;85.68;99324.38;5071625;28;20264;-69
2023/04/24 03:04:27;;;;;;;11.50;9.10;;;;;;;10.67;84.22;99320.91;5057568;28;20794;-70
2023/04/24 03:06:56;;;;;;;15.33;9.87;;;;;;;10.67;84.63;99316.41;5051969;28;20193;-70
2023/04/24 03:09:23;;;;;;;11.63;9.97;;;;;;;10.72;84.74;99319.31;5050204;28;20251;-69
2023/04/24 03:11:50;;;;;;;13.33;10.33;;;;;;;10.68;84.68;99306.63;5051532;28;20198;-69
2023/04/24 03:14:16;;;;;;;11.87;10.27;;;;;;;10.78;84.54;99318.50;5051689;28;20260;-70
2023/04/24 03:16:43;;;;;;;16.17;9.93;;;;;;;10.76;84.78;99331.16;5051929;28;20193;-70
2023/04/24 03:19:10;;;;;;;23.13;10.90;;;;;;;10.75;84.88;99334.03;5051499;28;20202;-71
2023/04/24 03:21:40;;;;;;;19.60;11.43;;;;;;;10.78;84.73;99329.13;5068045;28;20206;-70
2023/04/24 03:24:08;;;;;;;22.13;11.73;;;;;;;10.76;84.27;99335.66;5074300;28;20220;-70
2023/04/24 03:26:35;;;;;;;21.10;11.87;;;;;;;10.65;85.09;99334.41;5075441;28;20189;-70
2023/04/24 03:29:01;;;;;;;21.10;11.77;;;;;;;10.62;85.12;99336.66;5075563;28;20288;-70
2023/04/24 03:31:28;;;;;;;16.83;10.80;;;;;;;10.53;84.74;99335.16;5074342;28;20193;-70
2023/04/24 03:33:55;;;;;;;18.20;11.37;;;;;;;10.54;85.53;99339.47;5075462;28;20192;-69
2023/04/24 03:36:21;;;;;;;23.37;11.17;;;;;;;10.51;85.62;99348.63;5075167;28;20197;-70
2023/04/24 03:38:48;;;;;;;16.37;10.70;;;;;;;10.51;86.25;99345.97;5075375;28;20247;-70
2023/04/24 03:41:16;;;;;;;22.47;11.30;;;;;;;10.60;86.05;99346.63;5075208;28;20242;-70
2023/04/24 03:43:43;;;;;;;21.00;12.67;;;;;;;10.68;85.72;99338.50;5054487;28;20221;-70
2023/04/24 03:46:10;;;;;;;27.73;12.07;;;;;;;10.80;86.09;99336.88;5055080;28;20198;-71
2023/04/24 03:48:37;;;;;;;23.37;13.30;;;;;;;11.00;84.85;99338.53;5055137;28;20283;-71
2023/04/24 03:51:03;;;;;;;24.00;13.20;;;;;;;11.13;83.11;99342.25;5054993;28;20232;-71
2023/04/24 03:53:30;;;;;;;15.40;12.43;;;;;;;11.25;82.59;99329.97;5055227;28;20230;-70
2023/04/24 03:55:57;;;;;;;23.20;13.07;;;;;;;11.56;81.85;99328.34;5054580;28;20665;-70
2023/04/24 03:58:25;;;;;;;19.83;12.93;;;;;;;11.81;80.49;99320.56;5054658;28;20715;-70
2023/04/24 04:00:52;;;;;;;17.33;13.27;;;;;;;12.07;79.26;99337.28;5054907;28;20203;-70
2023/04/24 04:03:18;;;;;;;17.13;12.27;;;;;;;12.31;78.27;99328.59;5054389;28;20618;-70
2023/04/24 04:05:45;;;;;;;19.97;12.37;;;;;;;12.64;76.19;99347.94;5054872;28;20207;-70
2023/04/24 04:08:12;;;;;;;21.40;13.20;;;;;;;12.98;75.32;99352.88;5054132;28;20195;-70
2023/04/24 04:10:38;;;;;;;22.63;12.87;;;;;;;13.30;73.52;99353.69;5052445;28;20664;-70
2023/04/24 04:13:06;;;;;;;64.87;14.87;;;;;;;13.50;71.71;99363.19;5061108;28;20296;-70
2023/04/24 04:15:34;;;;;;;28.73;13.83;;;;;;;13.70;71.12;99361.16;5053705;28;20659;-70
2023/04/24 04:18:01;;;;;;;44.33;12.93;;;;;;;13.97;70.76;99365.22;5054043;28;20184;-69
2023/04/24 04:20:27;;;;;;;23.33;12.90;;;;;;;14.43;69.54;99376.25;5053624;28;20189;-70
2023/04/24 04:22:54;;;;;;;20.37;13.17;;;;;;;14.92;67.74;99380.56;5056297;28;20660;-70
2023/04/24 04:25:21;;;;;;;32.20;13.27;;;;;;;15.43;66.01;99389.72;5062087;28;20217;-70
2023/04/24 04:27:48;;;;;;;17.87;10.27;;;;;;;15.91;64.18;99392.22;5070709;28;20212;-70
2023/04/24 04:30:15;;;;;;;18.23;10.50;;;;;;;16.34;62.33;99407.94;5067987;28;20184;-71
2023/04/24 04:32:43;;;;;;;8.20;7.47;;;;;;;17.28;69.23;99389.50;5062136;28;20464;-74
2023/04/24 04:35:10;;;;;;;11.57;7.30;;;;;;;18.51;65.77;99396.31;5062755;28;20254;-74
2023/04/24 04:37:38;;;;;;;9.63;6.97;;;;;;;19.35;57.88;99401.06;5062278;28;20580;-72
2023/04/24 04:40:06;;;;;;;22.13;7.90;;;;;;;20.25;55.96;99404.53;5062870;28;20200;-72
2023/04/24 04:42:34;;;;;;;14.03;8.50;;;;;;;21.18;49.53;99384.72;5062826;28;20278;-72
2023/04/24 04:45:01;;;;;;;14.07;7.33;;;;;;;22.01;47.38;99387.75;5062367;28;20218;-73
2023/04/24 04:47:31;;;;;;;12.00;8.40;;;;;;;22.52;44.69;99386.59;5063413;28;20196;-72
2023/04/24 04:49:59;;;;;;;10.53;7.73;;;;;;;22.41;44.23;99382.28;5064106;28;20192;-70
2023/04/24 04:52:26;;;;;;;16.53;8.47;;;;;;;22.14;41.50;99387.22;5061511;28;20237;-72
2023/04/24 04:54:53;;;;;;;14.50;9.27;;;;;;;21.97;44.23;99370.44;5063929;28;20223;-74
2023/04/24 04:57:20;;;;;;;21.97;10.30;;;;;;;22.50;43.49;99380.66;5056199;28;20192;-67
2023/04/24 04:59:47;;;;;;;16.97;7.53;;;;;;;23.43;41.80;99379.66;5057058;28;20192;-67
2023/04/24 05:02:13;;;;;;;13.77;8.60;;;;;;;23.97;40.11;99371.41;5073518;28;20572;-67
2023/04/24 05:04:40;;;;;;;62.10;11.97;;;;;;;24.46;35.05;99378.19;5073489;28;20220;-67
2023/04/24 05:07:08;;;;;;;9.67;8.77;;;;;;;24.62;37.47;99359.81;5073358;28;20188;-67
2023/04/24 05:09:35;;;;;;;16.27;8.43;;;;;;;25.31;35.15;99367.38;5070936;28;20262;-68
2023/04/24 05:12:02;;;;;;;13.30;8.73;;;;;;;25.54;32.69;99367.28;5072052;28;20662;-68
2023/04/24 05:14:28;;;;;;;12.10;8.27;;;;;;;25.42;32.99;99363.38;5073206;28;20199;-70
2023/04/24 05:16:55;;;;;;;12.73;9.80;;;;;;;25.07;33.98;99361.94;5072845;28;20666;-69
2023/04/24 05:19:22;;;;;;;14.43;9.13;;;;;;;25.17;34.97;99355.56;5072863;28;20256;-66
2023/04/24 05:21:48;;;;;;;8.77;7.97;;;;;;;25.26;33.94;99348.34;5072713;28;20622;-66
2023/04/24 05:24:16;;;;;;;13.50;8.70;;;;;;;24.96;34.84;99355.06;5073071;28;20223;-66
2023/04/24 05:26:43;;;;;;;36.20;10.60;;;;;;;24.19;34.89;99344.56;5072841;28;20199;-66
2023/04/24 05:29:10;;;;;;;11.00;7.20;;;;;;;23.92;37.37;99339.69;5072519;28;20284;-66
2023/04/24 05:31:36;;;;;;;10.97;8.13;;;;;;;24.06;35.96;99343.31;5052794;28;20247;-77
2023/04/24 05:34:03;;;;;;;8.80;8.20;;;;;;;24.26;35.22;99305.09;5067712;28;20530;-76
2023/04/24 05:36:30;;;;;;;11.70;8.63;;;;;;;24.33;35.18;99327.28;5056755;28;20195;-74
2023/04/24 05:38:57;;;;;;;17.20;9.03;;;;;;;23.56;36.68;99316.63;5052513;28;20199;-77
2023/04/24 05:41:25;;;;;;;12.50;9.23;;;;;;;23.54;37.02;99332.41;5052542;28;20736;-81
2023/04/24 05:43:52;;;;;;;11.67;6.57;;;;;;;23.76;40.48;99327.31;5052785;28;20230;-66
2023/04/24 05:46:19;;;;;;;11.77;7.33;;;;;;;24.26;40.00;99324.09;5051595;28;20198;-66
2023/04/24 05:48:45;;;;;;;11.80;7.00;;;;;;;24.67;37.89;99319.03;5052391;28;20234;-66
2023/04/24 05:51:12;;;;;;;19.03;6.93;;;;;;;25.06;37.00;99327.72;5052289;28;20199;-65
2023/04/24 05:53:39;;;;;;;18.00;7.07;;;;;;;24.99;37.00;99328.09;5052551;28;20250;-65
2023/04/24 05:56:06;;;;;;;15.33;7.70;;;;;;;24.74;36.65;99333.88;5059561;28;20248;-67
2023/04/24 05:58:34;;;;;;;16.13;6.67;;;;;;;24.55;37.11;99327.56;5066396;28;20252;-73
2023/04/24 06:01:02;;;;;;;8.27;7.43;;;;;;;24.46;35.28;99329.31;5060059;28;20638;-75
2023/04/24 06:03:29;;;;;;;14.93;7.30;;;;;;;24.25;36.61;99338.78;5066049;28;20251;-73
2023/04/24 06:05:55;;;;;;;10.50;6.80;;;;;;;23.61;36.22;99338.28;5052151;28;20193;-76
2023/04/24 06:08:22;;;;;;;24.33;7.03;;;;;;;23.43;37.39;99335.47;5052101;28;20190;-74
2023/04/24 06:10:49;;;;;;;12.60;6.90;;;;;;;23.28;36.41;99344.50;5052156;28;20201;-74
2023/04/24 06:13:16;;;;;;;12.07;7.27;;;;;;;23.13;37.86;99330.22;5065030;28;20193;-74
2023/04/24 06:15:45;;;;;;;13.30;6.87;;;;;;;23.43;38.06;99328.13;5069083;28;20227;-73
2023/04/24 06:18:12;;;;;;;15.33;7.30;;;;;;;23.90;36.82;99339.13;5054564;28;20192;-74
2023/04/24 06:20:39;;;;;;;9.00;8.07;;;;;;;24.12;36.23;99339.47;5052027;28;20204;-74
2023/04/24 06:23:06;;;;;;;12.40;7.90;;;;;;;23.80;36.17;99339.22;5052016;28;20195;-73
2023/04/24 06:25:32;;;;;;;253.67;22.90;;;;;;;23.30;37.13;99336.91;5051445;28;20255;-73
2023/04/24 06:27:59;;;;;;;13.47;7.00;;;;;;;22.66;40.42;99335.38;5051845;28;20224;-73
2023/04/24 06:30:27;;;;;;;15.60;7.33;;;;;;;22.94;42.51;99330.06;5066207;28;20231;-66
2023/04/24 06:32:55;;;;;;;9.30;6.63;;;;;;;23.22;40.71;99329.38;5071939;28;20192;-67
2023/04/24 06:35:22;;;;;;;11.97;5.90;;;;;;;24.12;40.93;99339.47;5053078;28;20200;-67
2023/04/24 06:37:48;;;;;;;14.57;6.50;;;;;;;24.81;37.46;99337.03;5074798;28;20195;-68
2023/04/24 06:40:15;;;;;;;19.87;6.97;;;;;;;25.07;36.91;99334.75;5071167;28;20190;-70
2023/04/24 06:42:42;;;;;;;14.67;6.53;;;;;;;25.31;35.91;99329.31;5064672;28;20194;-67
2023/04/24 06:45:09;;;;;;;14.53;6.40;;;;;;;25.84;36.28;99334.09;5070800;28;20774;-68
2023/04/24 06:47:36;;;;;;;10.30;5.13;;;;;;;26.33;35.09;99333.50;5069888;28;20273;-69
2023/04/24 06:50:05;;;;;;;8.47;4.87;;;;;;;26.14;34.42;99338.22;5063022;28;20211;-67
2023/04/24 06:52:32;;;;;;;7.13;6.17;;;;;;;25.99;33.35;99331.16;5056044;28;20348;-68
2023/04/24 06:55:01;;;;;;;8.57;6.40;;;;;;;25.94;34.33;99333.97;5056018;28;20210;-70
2023/04/24 06:57:28;;;;;;;11.80;6.30;;;;;;;26.11;33.48;99345.09;5050169;28;20284;-67
2023/04/24 06:59:55;;;;;;;12.30;5.77;;;;;;;26.21;34.52;99338.66;5053732;28;20195;-66
2023/04/24 07:02:22;;;;;;;11.77;5.60;;;;;;;26.29;34.16;99337.94;5062170;28;20188;-71
2023/04/24 07:04:48;;;;;;;5.63;5.13;;;;;;;26.34;32.50;99340.56;5071525;28;20938;-68
2023/04/24 07:07:16;;;;;;;10.87;6.60;;;;;;;25.96;33.40;99341.84;5075350;28;20261;-68
2023/04/24 07:09:45;;;;;;;9.20;5.30;;;;;;;25.80;35.18;99343.19;5065156;28;20649;-69
2023/04/24 07:12:12;;;;;;;7.47;6.57;;;;;;;25.29;34.98;99343.19;5066102;28;20210;-68
2023/04/24 07:14:39;;;;;;;8.40;7.43;;;;;;;24.28;36.79;99346.34;5055998;28;20200;-68
2023/04/24 07:17:06;;;;;;;14.47;5.67;;;;;;;24.01;38.84;99343.38;5055608;28;20270;-68
2023/04/24 07:19:35;;;;;;;13.63;6.47;;;;;;;24.67;38.56;99344.28;5055103;28;20229;-68
2023/04/24 07:22:03;;;;;;;8.57;5.50;;;;;;;25.42;37.81;99336.16;5054600;28;20205;-68
2023/04/24 07:24:32;;;;;;;7.97;6.50;;;;;;;25.98;35.88;99328.72;5055037;28;20314;-69
2023/04/24 07:26:59;;;;;;;10.17;5.63;;;;;;;26.72;35.42;99339.25;5071127;28;20204;-69
2023/04/24 07:29:25;;;;;;;9.53;5.57;;;;;;;27.35;33.85;99340.03;5056635;28;20319;-68
2023/04/24 07:31:53;;;;;;;9.10;5.80;;;;;;;27.85;31.40;99352.50;5058837;28;20745;-67
2023/04/24 07:34:20;;;;;;;5.53;4.90;;;;;;;27.94;31.96;99345.16;5054567;28;20196;-69
2023/04/24 07:36:47;;;;;;;18.07;6.33;;;;;;;27.90;31.44;99349.63;5060574;28;20192;-69
2023/04/24 07:39:14;;;;;;;8.03;7.20;;;;;;;27.52;30.83;99345.66;5074653;28;20249;-67
2023/04/24 07:41:42;;;;;;;7.33;6.03;;;;;;;26.91;32.50;99335.28;5073632;28;20250;-68
2023/04/24 07:44:09;;;;;;;18.53;5.83;;;;;;;26.88;33.35;99338.66;5073794;28;20192;-67
2023/04/24 07:46:35;;;;;;;7.10;6.50;;;;;;;27.00;31.42;99335.38;5060202;28;20254;-67
2023/04/24 07:49:03;;;;;;;10.83;6.90;;;;;;;26.41;32.68;99328.16;5054038;28;20197;-68
2023/04/24 07:51:30;;;;;;;8.67;6.73;;;;;;;25.71;33.69;99334.06;5067296;28;20694;-68
2023/04/24 07:53:56;;;;;;;7.60;6.87;;;;;;;25.71;36.77;99323.16;5073915;28;20218;-71
2023/04/24 07:56:23;;;;;;;9.30;5.60;;;;;;;25.90;36.94;99321.22;5074184;28;20192;-69
2023/04/24 07:58:51;;;;;;;6.73;6.10;;;;;;;26.33;35.65;99319.88;5073970;28;20253;-71
2023/04/24 08:01:18;;;;;;;18.37;7.20;;;;;;;26.62;35.90;99317.69;5072655;28;20196;-68
2023/04/24 08:03:45;;;;;;;11.93;6.17;;;;;;;26.63;34.92;99314.66;5072374;28;20218;-70
2023/04/24 08:06:11;;;;;;;8.77;7.63;;;;;;;26.48;32.21;99317.66;5066056;28;20696;-68
2023/04/24 08:08:38;;;;;;;16.03;7.03;;;;;;;25.79;36.18;99314.31;5061722;28;20563;-67
2023/04/24 08:11:05;;;;;;;16.00;7.10;;;;;;;25.60;35.16;99311.66;5061678;28;20189;-68
2023/04/24 08:13:32;;;;;;;12.17;6.87;;;;;;;25.66;34.59;99312.38;5061902;28;20248;-68
2023/04/24 08:16:00;;;;;;;8.63;6.67;;;;;;;25.62;35.48;99308.63;5059298;28;20667;-68
2023/04/24 08:18:26;;;;;;;23.00;7.57;;;;;;;25.49;34.15;99314.84;5054735;28;20200;-69
2023/04/24 08:20:53;;;;;;;24.30;7.97;;;;;;;24.88;35.83;99310.28;5059935;28;20244;-68
2023/04/24 08:23:20;;;;;;;10.13;5.53;;;;;;;24.50;38.76;99300.47;5073264;28;20206;-67
2023/04/24 08:25:46;;;;;;;18.73;7.73;;;;;;;24.53;36.75;99293.63;5068965;28;20699;-69
2023/04/24 08:28:19;;;;;;;12.70;9.70;;;;;;;24.50;36.76;99292.31;5064077;28;20249;-67
2023/04/24 08:30:46;;;;;;;10.87;7.70;;;;;;;24.57;36.38;99292.78;5068006;28;20187;-68
2023/04/24 08:33:14;;;;;;;16.47;6.97;;;;;;;24.87;39.58;99289.66;5072929;28;20202;-66
2023/04/24 08:35:41;;;;;;;15.20;7.60;;;;;;;25.43;37.82;99284.19;5071135;28;20203;-74
2023/04/24 08:38:08;;;;;;;9.73;7.20;;;;;;;25.70;34.72;99280.75;5064090;28;20245;-71
2023/04/24 08:40:35;;;;;;;13.13;8.10;;;;;;;25.66;35.69;99266.13;5071634;28;20802;-72
2023/04/24 08:43:04;;;;;;;15.70;7.63;;;;;;;25.48;34.05;99273.22;5071956;28;20226;-71
2023/04/24 08:45:31;;;;;;;10.07;6.67;;;;;;;25.41;37.21;99275.53;5070687;28;20273;-70
2023/04/24 08:47:59;;;;;;;28.70;7.70;;;;;;;25.67;34.90;99274.00;5066268;28;20192;-71
2023/04/24 08:50:27;;;;;;;8.43;7.33;;;;;;;25.78;34.86;99269.16;5054767;28;20227;-73
2023/04/24 08:52:54;;;;;;;9.57;7.17;;;;;;;25.48;34.68;99269.72;5073489;28;20261;-69
2023/04/24 08:55:21;;;;;;;10.60;7.00;;;;;;;25.39;34.96;99266.06;5072873;28;20290;-69
2023/04/24 08:57:53;;;;;;;11.90;7.30;;;;;;;25.43;34.38;99256.22;5071666;28;20626;-68
2023/04/24 09:00:21;;;;;;;14.87;6.30;;;;;;;25.47;36.07;99263.47;5072256;28;20571;-66
2023/04/24 09:02:50;;;;;;;10.20;5.93;;;;;;;25.77;37.42;99256.69;5073243;28;20196;-66
2023/04/24 09:05:18;;;;;;;6.17;5.57;;;;;;;25.85;36.97;99254.06;5052192;28;20225;-68
2023/04/24 09:07:53;;;;;;;6.97;6.23;;;;;;;25.79;34.71;99254.44;5073063;28;20238;-65
2023/04/24 09:10:21;;;;;;;10.97;5.63;;;;;;;25.75;35.97;99251.53;5072642;28;20592;-67
2023/04/24 09:12:47;;;;;;;8.17;5.90;;;;;;;25.66;36.23;99261.50;5072330;28;20203;-66
2023/04/24 09:15:15;;;;;;;6.13;4.97;;;;;;;25.98;37.78;99252.50;5053646;28;20197;-67
2023/04/24 09:17:41;;;;;;;7.23;6.63;;;;;;;25.55;33.89;99256.56;5072583;28;20282;-65
2023/04/24 09:20:09;;;;;;;8.97;5.67;;;;;;;25.66;34.51;99249.78;5070808;28;20249;-65
2023/04/24 09:22:36;;;;;;;12.40;5.60;;;;;;;25.73;34.76;99239.34;5072129;28;20199;-66
2023/04/24 09:25:11;;;;;;;8.87;5.50;;;;;;;26.04;37.22;99243.13;5072123;28;20215;-65
2023/04/24 09:27:43;;;;;;;9.83;5.90;;;;;;;26.08;36.86;99247.66;5072401;28;20242;-65
2023/04/24 09:30:11;;;;;;;7.03;6.17;;;;;;;26.26;33.79;99248.66;5057739;28;20191;-65
2023/04/24 09:32:38;;;;;;;9.87;5.20;;;;;;;26.50;36.12;99251.97;5057004;28;20188;-67
2023/04/24 09:35:12;;;;;;;12.63;5.90;;;;;;;26.59;34.61;99237.34;5052028;28;20258;-67
2023/04/24 09:37:41;;;;;;;27.53;6.73;;;;;;;26.59;34.49;99214.75;5070092;28;20200;-68
2023/04/24 09:40:17;;;;;;;10.83;5.60;;;;;;;26.85;34.10;99232.09;5072034;28;20191;-66
2023/04/24 09:42:52;;;;;;;6.40;5.60;;;;;;;27.07;35.18;99221.22;5070066;28;20191;-67
2023/04/24 09:45:18;;;;;;;13.67;5.90;;;;;;;27.24;35.17;99221.38;5071408;28;20219;-68
2023/04/24 09:47:45;;;;;;;5.50;5.00;;;;;;;27.13;32.09;99230.88;5071183;28;20192;-70
2023/04/24 09:50:14;;;;;;;5.40;4.90;;;;;;;26.99;34.08;99227.44;5071455;28;20260;-69
2023/04/24 09:52:43;;;;;;;5.37;4.87;;;;;;;27.17;32.81;99223.69;5070941;28;20188;-68
2023/04/24 09:55:19;;;;;;;5.50;4.80;;;;;;;27.38;33.99;99216.66;5059583;28;20197;-69
2023/04/24 09:57:50;;;;;;;10.40;5.70;;;;;;;27.54;32.07;99220.59;5051890;28;20184;-69
2023/04/24 10:00:23;;;;;;;5.63;5.17;;;;;;;27.26;33.04;99211.75;5052134;28;20203;-69
2023/04/24 10:02:56;;;;;;;14.57;5.60;;;;;;;27.28;32.65;99217.69;5068579;28;20655;-70
2023/04/24 10:05:28;;;;;;;7.37;5.60;;;;;;;27.53;33.13;99208.06;5058776;28;20610;-70
2023/04/24 10:07:58;;;;;;;15.47;6.10;;;;;;;27.10;32.82;99209.69;5059074;28;20192;-71
2023/04/24 10:10:27;;;;;;;9.27;5.60;;;;;;;26.96;32.69;99208.94;5051562;28;20196;-69
2023/04/24 10:12:54;;;;;;;6.47;5.60;;;;;;;26.62;32.66;99200.50;5057896;28;20626;-69
2023/04/24 10:15:21;;;;;;;6.50;4.50;;;;;;;26.64;34.99;99201.00;5051576;28;20204;-71
2023/04/24 10:17:52;;;;;;;7.10;5.57;;;;;;;26.84;34.52;99189.63;5069014;28;20192;-71
2023/04/24 10:20:20;;;;;;;6.87;6.17;;;;;;;26.79;33.31;99198.72;5069847;28;20671;-71
2023/04/24 10:22:51;;;;;;;6.27;5.70;;;;;;;26.67;33.33;99198.47;5070741;28;20190;-72
2023/04/24 10:25:20;;;;;;;5.53;5.13;;;;;;;26.69;34.46;99182.59;5070772;28;20219;-69
2023/04/24 10:27:49;;;;;;;6.60;6.00;;;;;;;26.44;33.69;99177.72;5071175;28;20298;-71
2023/04/24 10:30:16;;;;;;;5.90;5.43;;;;;;;26.48;35.01;99164.25;5061884;28;20181;-70
2023/04/24 10:32:43;;;;;;;7.77;5.50;;;;;;;26.74;34.65;99174.31;5050960;28;20193;-69
2023/04/24 10:35:12;;;;;;;5.83;5.10;;;;;;;26.77;34.23;99170.16;5051105;28;20197;-69
2023/04/24 10:37:42;;;;;;;7.13;5.87;;;;;;;26.90;34.63;99169.31;5065579;28;20203;-71
2023/04/24 10:40:12;;;;;;;6.17;5.63;;;;;;;26.61;33.94;99149.81;5050738;28;20193;-69
2023/04/24 10:42:42;;;;;;;7.67;5.33;;;;;;;26.74;35.17;99163.41;5065246;28;20929;-70
2023/04/24 10:45:21;;;;;;;8.70;6.13;;;;;;;26.81;34.83;99152.88;5068582;28;20192;-71
2023/04/24 10:47:59;;;;;;;5.07;4.70;;;;;;;27.13;35.08;99154.53;5065970;28;20610;-71
2023/04/24 10:50:29;;;;;;;6.80;5.10;;;;;;;27.31;33.95;99148.88;5070983;28;20270;-71
2023/04/24 10:53:06;;;;;;;15.70;4.60;;;;;;;27.39;35.29;99141.84;5071363;28;20218;-68
2023/04/24 10:55:44;;;;;;;5.67;4.90;;;;;;;27.48;33.46;99145.44;5062860;28;20196;-71
2023/04/24 10:58:11;;;;;;;7.87;5.23;;;;;;;27.23;34.44;99143.41;5071332;28;20253;-66
2023/04/24 11:00:41;;;;;;;5.80;5.20;;;;;;;26.79;34.28;99137.94;5071280;28;20203;-66
2023/04/24 11:03:23;;;;;;;8.10;4.77;;;;;;;26.86;35.45;99138.34;5070797;28;20207;-65
2023/04/24 11:05:56;;;;;;;11.47;5.77;;;;;;;26.95;34.90;99133.72;5068983;28;20679;-68
2023/04/24 11:08:28;;;;;;;7.10;5.57;;;;;;;26.84;35.20;99133.19;5071483;28;20196;-66
2023/04/24 11:11:00;;;;;;;7.83;5.50;;;;;;;26.54;35.49;99135.81;5066476;28;20619;-66
2023/04/24 11:13:29;;;;;;;6.07;5.60;;;;;;;26.32;35.63;99122.13;5052084;28;20188;-66
2023/04/24 11:16:21;;;;;;;7.47;5.40;;;;;;;25.93;37.04;99119.19;5051782;28;20228;-66
2023/04/24 11:18:54;;;;;;;5.77;4.87;;;;;;;25.72;37.42;99104.41;5064455;28;20706;-66
2023/04/24 11:21:21;;;;;;;9.13;5.50;;;;;;;25.40;38.00;99112.66;5071595;28;20184;-66
2023/04/24 11:23:47;;;;;;;9.30;5.90;;;;;;;25.41;38.25;99104.19;5069409;28;20729;-67
2023/04/24 11:26:19;;;;;;;15.07;5.93;;;;;;;25.45;38.49;99098.94;5061659;28;20270;-67
2023/04/24 11:28:48;;;;;;;5.73;5.23;;;;;;;25.53;38.30;99098.25;5071106;28;20224;-66